Flight Track Log - Related Links

Times and Time Zones

All times are in EDT time to prevent confusion due to time zone crossing. See the N468QS flight status page for this flight to view local times or setup timezone preferences in your user account.


Time Position Orientation Groundspeed Altitude Reporting Facility
EDT Latitude Longitude Course Direction KTS MPH feet Rate Location/Type
Thu 10:33:08 AM 29.5222 -98.4592 126° Southeast 209 241 1,900  Level Houston Center
Thu 10:33:17 AM 29.5181 -98.4525 126° Southeast 202 232 2,600 3,600 Climbing Houston Center
Thu 10:33:33 AM 29.5081 -98.4417 137° Southeast 211 243 3,400 3,774 Climbing Houston Center
Thu 10:34:19 AM 29.4889 -98.3958 116° Southeast 214 246 6,500 3,364 Climbing Houston Center
Thu 10:34:39 AM 29.5022 -98.3775 50° Northeast 248 285 7,100 3,194 Climbing Houston Center
Thu 10:35:21 AM 29.5564 -98.3722 North 283 326 9,800 2,654 Climbing Houston Center
Thu 10:36:23 AM 29.6517 -98.3764 358° North 338 389 11,700 2,371 Climbing Houston Center
Thu 10:37:25 AM 29.7544 -98.3817 357° North 368 423 14,700 2,784 Climbing Houston Center
Thu 10:38:28 AM 29.8603 -98.4317 338° Northwest 381 438 17,500 2,400 Climbing Houston Center
Thu 10:39:30 AM 29.9614 -98.4847 336° Northwest 397 457 19,700 2,081 Climbing Houston Center
Thu 10:40:32 AM 30.0742 -98.5456 335° Northwest 414 476 21,800 2,468 Climbing Houston Center
Thu 10:41:34 AM 30.1800 -98.6025 335° Northwest 419 482 24,800 2,613 Climbing Houston Center
Thu 10:42:36 AM 30.2917 -98.6619 335° Northwest 410 472 27,200 1,839 Climbing Houston Center
Thu 10:43:38 AM 30.3817 -98.7094 336° Northwest 415 478 28,600 1,645 Climbing Houston Center
Thu 10:44:40 AM 30.5092 -98.7775 335° Northwest 427 491 30,600 1,790 Climbing Houston Center
Thu 10:45:42 AM 30.6211 -98.8383 335° Northwest 436 502 32,300 1,680 Climbing Houston Center
Thu 10:46:45 AM 30.7311 -98.8983 335° Northwest 434 499 34,100 1,728 Climbing Houston Center
Thu 10:47:47 AM 30.8408 -98.9567 335° Northwest 430 495 35,900 1,694 Climbing Houston Center
Thu 10:48:49 AM 30.9503 -99.0169 335° Northwest 429 494 37,600 1,742 Climbing Houston Center
Thu 10:49:51 AM 31.0569 -99.0750 335° Northwest 421 484 39,500 1,161 Climbing Houston Center
Thu 10:50:53 AM 31.1636 -99.1342 335° Northwest 419 482 40,000 242 Climbing Houston Center
Thu 10:51:55 AM 31.2753 -99.1939 335° Northwest 421 484 40,000  Level Houston Center
Thu 10:52:57 AM 31.3969 -99.2606 335° Northwest 422 486 40,000  Level Houston Center
Thu 10:53:59 AM 31.5039 -99.3200 335° Northwest 420 483 40,000  Level Houston Center
Thu 10:55:01 AM 31.6125 -99.3786 335° Northwest 423 487 40,000  Level Houston Center
Thu 10:55:33 AM 31.6608 -99.4075 333° Northwest 422 486 40,000  Level Fort Worth Center
Thu 10:56:33 AM 31.7664 -99.4658 335° Northwest 422 486 40,000  Level Fort Worth Center
Thu 10:57:33 AM 31.8739 -99.5244 335° Northwest 422 486 40,000  Level Fort Worth Center
Thu 10:58:33 AM 31.9794 -99.5833 335° Northwest 422 486 40,000  Level Fort Worth Center
Thu 10:59:33 AM 32.0869 -99.6422 335° Northwest 422 486 40,000  Level Fort Worth Center
Thu 11:00:33 AM 32.1925 -99.7014 335° Northwest 422 486 40,000  Level Fort Worth Center
Thu 11:01:33 AM 32.2958 -99.7606 334° Northwest 422 486 40,000  Level Fort Worth Center
Thu 11:02:33 AM 32.4031 -99.8222 334° Northwest 422 486 40,000  Level Fort Worth Center
Thu 11:03:33 AM 32.5064 -99.8842 333° Northwest 422 486 40,000  Level Fort Worth Center
Thu 11:04:33 AM 32.6239 -99.9589 332° Northwest 416 479 40,000  Level Fort Worth Center
Thu 11:05:33 AM 32.7269 -100.0236 332° Northwest 427 491 40,000  Level Fort Worth Center
Thu 11:06:33 AM 32.8339 -100.0936 331° Northwest 438 504 40,000  Level Fort Worth Center
Thu 11:07:33 AM 32.9369 -100.1608 331° Northwest 433 498 40,000  Level Fort Worth Center
Thu 11:08:33 AM 33.0378 -100.2236 332° Northwest 422 486 40,000  Level Fort Worth Center
Thu 11:09:33 AM 33.1425 -100.2939 331° Northwest 422 486 40,000  Level Fort Worth Center
Thu 11:10:33 AM 33.2453 -100.3592 332° Northwest 422 486 40,000  Level Fort Worth Center
Thu 11:11:33 AM 33.3461 -100.4272 331° Northwest 422 486 40,000  Level Fort Worth Center
Thu 11:12:33 AM 33.4508 -100.4956 331° Northwest 422 486 40,000  Level Fort Worth Center
Thu 11:13:33 AM 33.5536 -100.5614 332° Northwest 422 486 40,000  Level Fort Worth Center
Thu 11:14:33 AM 33.6561 -100.6300 331° Northwest 417 480 40,000  Level Fort Worth Center
Thu 11:15:33 AM 33.7608 -100.6989 331° Northwest 417 480 40,000  Level Fort Worth Center
Thu 11:16:33 AM 33.8633 -100.7678 331° Northwest 420 483 40,000  Level Fort Worth Center
Thu 11:17:33 AM 33.9678 -100.8394 330° Northwest 420 483 40,000  Level Fort Worth Center
Thu 11:19:47 AM 34.1794 -100.9772 332° Northwest 427 491 40,000  Level Albuquerque Center
Thu 11:20:49 AM 34.3047 -101.0617 331° Northwest 430 495 40,000  Level Albuquerque Center
Thu 11:21:51 AM 34.4089 -101.1319 331° Northwest 430 495 40,000  Level Albuquerque Center
Thu 11:22:56 AM 34.5128 -101.2039 330° Northwest 429 494 40,000  Level Albuquerque Center
Thu 11:23:57 AM 34.6172 -101.2742 331° Northwest 429 494 40,000  Level Albuquerque Center
Thu 11:24:57 AM 34.7217 -101.3453 331° Northwest 429 494 40,000  Level Albuquerque Center
Thu 11:26:01 AM 34.8258 -101.4167 331° Northwest 430 495 40,000  Level Albuquerque Center
Thu 11:27:02 AM 34.9500 -101.5014 331° Northwest 428 493 40,000  Level Albuquerque Center
Thu 11:28:05 AM 35.0531 -101.5722 331° Northwest 436 502 40,000  Level Albuquerque Center
Thu 11:29:07 AM 35.1586 -101.6458 330° Northwest 436 502 40,000  Level Albuquerque Center
Thu 11:30:08 AM 35.2700 -101.7281 329° Northwest 433 498 40,000  Level Albuquerque Center
Thu 11:31:11 AM 35.3681 -101.8172 323° Northwest 435 501 40,000  Level Albuquerque Center
Thu 11:32:12 AM 35.4656 -101.9064 323° Northwest 435 501 40,000  Level Albuquerque Center
Thu 11:33:17 AM 35.5619 -101.9972 323° Northwest 432 497 40,000  Level Albuquerque Center
Thu 11:34:15 AM 35.6575 -102.0864 323° Northwest 432 497 40,000  Level Albuquerque Center
Thu 11:35:19 AM 35.7742 -102.1928 324° Northwest 434 499 40,000  Level Albuquerque Center
Thu 11:36:20 AM 35.8706 -102.2825 323° Northwest 436 502 40,000  Level Albuquerque Center
Thu 11:37:23 AM 35.9656 -102.3719 323° Northwest 432 497 40,000  Level Albuquerque Center
Thu 11:38:25 AM 36.0631 -102.4614 323° Northwest 435 501 40,000  Level Albuquerque Center
Thu 11:39:26 AM 36.1586 -102.5525 322° Northwest 435 501 40,000  Level Albuquerque Center
Thu 11:40:29 AM 36.2556 -102.6428 323° Northwest 435 501 40,000  Level Albuquerque Center
Thu 11:41:30 AM 36.3714 -102.7508 323° Northwest 435 501 40,000 -341 Level Albuquerque Center
Thu 11:42:32 AM 36.4672 -102.8422 323° Northwest 435 501 39,300 -810 Descending Albuquerque Center
Thu 11:43:36 AM 36.5647 -102.9344 323° Northwest 437 503 38,300 -960 Descending Albuquerque Center
Thu 11:44:37 AM 36.6672 -103.0317 323° Northwest 441 507 37,300 -984 Descending Albuquerque Center
Thu 11:45:38 AM 36.7631 -103.1242 322° Northwest 449 517 36,300 -1,008 Descending Albuquerque Center
Thu 11:46:42 AM 36.8756 -103.2314 323° Northwest 453 521 35,200 -1,008 Descending Albuquerque Center
Thu 11:47:43 AM 36.9739 -103.3250 323° Northwest 460 529 34,200 -581 Descending Albuquerque Center
Thu 11:48:46 AM 37.0928 -103.4400 322° Northwest 479 551 34,000 -97 Descending Albuquerque Center
Thu 11:49:47 AM 37.1936 -103.5375 322° Northwest 479 551 34,000  Level Albuquerque Center
Thu 11:50:50 AM 37.3053 -103.6567 320° Northwest 472 543 34,000 -244 Level Albuquerque Center
Thu 11:51:50 AM 37.3981 -103.7631 318° Northwest 472 543 33,500 -788 Descending Albuquerque Center
Thu 11:53:07 AM 37.5219 -103.9056 318° Northwest 476 548 32,200 -1,036 Descending Denver Center
Thu 11:54:09 AM 37.6278 -104.0328 316° Northwest 490 564 31,100 -1,839 Descending Denver Center
Thu 11:55:11 AM 37.7350 -104.1606 317° Northwest 480 552 28,400 -2,758 Descending Denver Center
Thu 11:56:13 AM 37.8256 -104.2681 317° Northwest 469 540 25,400 -3,000 Descending Denver Center
Thu 11:57:15 AM 37.9239 -104.3853 317° Northwest 437 503 22,200 -3,097 Descending Denver Center
Thu 11:58:17 AM 38.0056 -104.4817 317° Northwest 423 487 19,000 -2,710 Descending Denver Center
Thu 11:59:19 AM 38.0844 -104.5769 316° Northwest 413 475 16,600 -1,324 Descending Denver Center
Thu 12:00:33 PM 38.1839 -104.6475 331° Northwest 380 437 16,000 -219 Descending Denver Center
Thu 12:01:36 PM 38.3069 -104.6458 North 347 399 16,100 -192 Climbing Denver Center
Thu 12:02:38 PM 38.3931 -104.6486 359° North 330 380 15,600 -1,210 Descending Denver Center
Thu 12:03:40 PM 38.4858 -104.6997 337° Northwest 323 372 13,600 -1,704 Descending Denver Center
Thu 12:03:59 PM 38.5114 -104.7125 339° North 313 360 13,300 -1,065 Descending Denver Center
Thu 12:04:42 PM 38.5592 -104.7139 359° North 281 323 12,500 -971 Descending Denver Center
Thu 12:05:44 PM 38.6044 -104.7158 358° North 221 254 11,600 -1,935 Descending Denver Center
Thu 12:06:46 PM 38.6728 -104.7133 North 196 226 8,500 -1,935 Descending Denver Center
Thu 12:07:48 PM 38.7161 -104.7111 North 179 206 7,600 -892 Descending Denver Center
Thu 12:08:00 PM 38.7250 -104.7153 340° North 155 178 7,400 -871 Descending Denver Center
Thu 12:08:50 PM 38.7633 -104.7122 North 162 186 6,700 -375 Descending Denver Center
Thu 12:09:52 PM 38.7961 -104.7117 North 162 186 6,700  Level Denver Center
Thu 12:11:00 PM 38.8058 -104.7008 24° Northeast  Level Estimated
Thu 12:18:00 PM 38.8000 -104.7000 204° Southwest  Level FlightAware Approximate
Thu 12:19:00 PM 38.8058 -104.7008 204° Southwest  Level Estimated
Thu 12:20:00 PM 38.8000 -104.7000 204° Southwest  Level FlightAware Approximate

Login

Don't have an account? Register now (free) for customized features, flight alerts, and more!